Time;durP1;ratioP1;P1;durP2;ratioP2;P2;SDS_P1;SDS_P2;PMS_P1;PMS_P2;Temp;Humidity;BMP_temperature;BMP_pressure;BME280_temperature;BME280_humidity;BME280_pressure;Samples;Min_cycle;Max_cycle;Signal;HPM_P1;HPM_P2
2022/08/30 00:03:10;;;;;;;7.13;3.67;;;16.90;99.90;;;;;;5033849;28;20068;-78
2022/08/30 00:05:36;;;;;;;10.10;3.83;;;17.30;99.90;;;;;;5046297;28;20448;-78
2022/08/30 00:08:05;;;;;;;5.38;3.47;;;16.80;99.90;;;;;;5037164;28;20071;-78
2022/08/30 00:10:32;;;;;;;4.88;3.30;;;16.90;99.90;;;;;;5051522;28;20459;-78
2022/08/30 00:12:59;;;;;;;6.47;3.78;;;16.90;99.90;;;;;;5030104;28;20033;-79
2022/08/30 00:15:28;;;;;;;5.53;3.65;;;16.90;99.90;;;;;;5009752;28;20044;-79
2022/08/30 00:17:55;;;;;;;7.28;3.63;;;16.90;99.90;;;;;;5031715;28;20057;-79
2022/08/30 00:20:27;;;;;;;5.85;3.50;;;16.90;99.90;;;;;;5022637;28;20524;-79
2022/08/30 00:22:53;;;;;;;6.80;3.70;;;16.90;99.90;;;;;;5039506;28;20042;-79
2022/08/30 00:25:19;;;;;;;7.40;3.78;;;16.90;99.90;;;;;;5030930;28;20576;-79
2022/08/30 00:27:45;;;;;;;6.13;3.88;;;16.90;99.90;;;;;;5033939;28;20045;-79
2022/08/30 00:30:13;;;;;;;5.03;3.60;;;16.80;99.90;;;;;;5031303;28;20451;-79
2022/08/30 00:32:39;;;;;;;5.97;3.40;;;16.90;99.90;;;;;;5038750;28;20045;-80
2022/08/30 00:35:08;;;;;;;4.75;3.40;;;16.90;99.90;;;;;;5042326;28;20444;-79
2022/08/30 00:37:34;;;;;;;8.13;3.67;;;16.90;99.90;;;;;;5031592;28;20045;-79
2022/08/30 00:40:04;;;;;;;6.43;3.45;;;16.90;99.90;;;;;;5036027;28;20051;-79
2022/08/30 00:42:30;;;;;;;5.05;3.53;;;16.90;99.90;;;;;;5032632;28;20409;-79
2022/08/30 00:44:57;;;;;;;6.53;3.50;;;16.80;99.90;;;;;;5054089;28;20508;-79
2022/08/30 00:47:24;;;;;;;5.55;3.65;;;16.80;99.90;;;;;;5020503;28;20067;-79
2022/08/30 00:49:54;;;;;;;5.97;4.03;;;16.90;99.90;;;;;;5056738;28;20037;-79
2022/08/30 00:52:22;;;;;;;5.80;3.35;;;16.80;99.90;;;;;;5035633;28;20041;-78
2022/08/30 00:54:50;;;;;;;6.15;3.80;;;16.80;99.90;;;;;;5026438;28;20042;-79
2022/08/30 00:57:16;;;;;;;4.68;3.33;;;16.80;99.90;;;;;;5036639;28;20056;-78
2022/08/30 00:59:45;;;;;;;5.60;3.78;;;16.70;99.90;;;;;;5044056;28;20045;-79
2022/08/30 01:02:13;;;;;;;5.38;3.45;;;16.70;99.90;;;;;;5049495;28;20041;-79
2022/08/30 01:04:40;;;;;;;7.40;3.50;;;16.70;99.90;;;;;;5032590;28;20204;-79
2022/08/30 01:07:07;;;;;;;5.40;3.63;;;16.70;99.90;;;;;;5034999;28;20394;-79
2022/08/30 01:09:34;;;;;;;6.63;3.55;;;16.70;99.90;;;;;;5044076;28;20049;-79
2022/08/30 01:12:00;;;;;;;5.03;3.38;;;16.70;99.90;;;;;;5046968;28;20038;-79
2022/08/30 01:14:26;;;;;;;9.45;3.95;;;16.70;99.90;;;;;;5041166;28;20124;-79
2022/08/30 01:16:55;;;;;;;5.72;3.63;;;16.80;99.90;;;;;;5011292;28;20037;-79
2022/08/30 01:19:26;;;;;;;4.75;3.70;;;16.70;99.90;;;;;;5022434;28;20033;-79
2022/08/30 01:22:02;;;;;;;6.95;3.95;;;16.70;99.90;;;;;;5048094;28;20498;-79
2022/08/30 01:24:29;;;;;;;6.15;3.58;;;16.70;99.90;;;;;;5023035;28;20041;-79
2022/08/30 01:26:58;;;;;;;6.90;3.45;;;16.70;99.90;;;;;;5027571;28;20037;-79
2022/08/30 01:29:27;;;;;;;6.70;3.63;;;16.60;99.90;;;;;;5030352;28;20049;-79
2022/08/30 01:31:53;;;;;;;7.07;3.88;;;16.60;99.90;;;;;;5022418;28;20040;-78
2022/08/30 01:34:25;;;;;;;5.65;3.60;;;16.60;99.90;;;;;;5044890;28;20413;-78
2022/08/30 01:36:50;;;;;;;4.95;3.40;;;16.60;99.90;;;;;;5047773;28;20122;-78
2022/08/30 01:39:17;;;;;;;5.63;3.60;;;16.60;99.90;;;;;;5030316;28;20060;-79
2022/08/30 01:41:44;;;;;;;7.32;3.60;;;16.60;99.90;;;;;;5047594;28;20079;-78
2022/08/30 01:44:12;;;;;;;5.18;3.45;;;16.60;99.90;;;;;;5032245;28;20061;-78
2022/08/30 01:46:42;;;;;;;5.85;3.58;;;16.50;99.90;;;;;;5030720;28;20084;-78
2022/08/30 01:49:13;;;;;;;6.05;3.47;;;16.50;99.90;;;;;;5049656;28;20049;-78
2022/08/30 01:51:40;;;;;;;8.95;3.90;;;16.50;99.90;;;;;;5033203;28;20049;-79
2022/08/30 01:54:06;;;;;;;6.65;3.45;;;16.50;99.90;;;;;;5029954;28;20087;-78
2022/08/30 01:56:31;;;;;;;6.57;3.90;;;16.50;99.90;;;;;;5029378;28;20037;-78
2022/08/30 01:58:58;;;;;;;5.45;3.85;;;16.50;99.90;;;;;;5023790;28;20044;-79
2022/08/30 02:01:26;;;;;;;5.78;3.97;;;16.40;99.90;;;;;;5041280;28;20041;-79
2022/08/30 02:03:54;;;;;;;8.60;4.22;;;16.40;99.90;;;;;;5042837;28;20061;-79
2022/08/30 02:06:22;;;;;;;7.60;4.05;;;16.70;99.90;;;;;;5028993;28;20033;-79
2022/08/30 02:08:50;;;;;;;7.35;3.58;;;16.40;99.90;;;;;;5030481;28;20121;-78
2022/08/30 02:11:17;;;;;;;7.32;3.92;;;16.30;99.90;;;;;;5033017;28;20056;-79
2022/08/30 02:13:44;;;;;;;7.35;4.20;;;16.50;99.90;;;;;;5028749;28;20040;-79
2022/08/30 02:16:14;;;;;;;5.50;3.40;;;16.30;99.90;;;;;;5027898;28;20048;-78
2022/08/30 02:18:40;;;;;;;7.03;3.80;;;16.30;99.90;;;;;;5037213;28;20034;-79
2022/08/30 02:21:07;;;;;;;5.95;4.05;;;16.30;99.90;;;;;;5030224;28;20040;-79
2022/08/30 02:23:32;;;;;;;5.45;4.03;;;16.30;99.90;;;;;;5042563;28;20481;-79
2022/08/30 02:26:00;;;;;;;5.53;3.90;;;16.30;99.90;;;;;;5030681;28;20548;-79
2022/08/30 02:28:26;;;;;;;7.13;4.00;;;16.30;99.90;;;;;;5030794;28;20053;-79
2022/08/30 02:30:53;;;;;;;8.75;3.85;;;16.30;99.90;;;;;;5048477;28;20039;-79
2022/08/30 02:33:19;;;;;;;5.90;4.22;;;16.20;99.90;;;;;;5046994;28;20044;-79
2022/08/30 02:35:45;;;;;;;7.55;4.10;;;16.30;99.90;;;;;;5030204;28;20071;-79
2022/08/30 02:38:11;;;;;;;5.85;4.10;;;16.30;99.90;;;;;;5035471;28;20076;-79
2022/08/30 02:40:37;;;;;;;7.57;3.88;;;16.30;99.90;;;;;;5032847;28;20394;-79
2022/08/30 02:43:05;;;;;;;7.53;4.18;;;16.30;99.90;;;;;;5047224;28;20048;-79
2022/08/30 02:45:31;;;;;;;6.15;4.10;;;16.20;99.90;;;;;;5029012;28;20077;-79
2022/08/30 02:48:00;;;;;;;5.97;4.10;;;16.40;99.90;;;;;;5023172;28;20147;-78
2022/08/30 02:50:25;;;;;;;6.28;4.18;;;16.20;99.90;;;;;;5028982;28;20528;-79
2022/08/30 02:52:51;;;;;;;5.50;4.10;;;16.20;99.90;;;;;;5025790;28;20029;-78
2022/08/30 02:55:17;;;;;;;6.95;4.20;;;16.20;99.90;;;;;;5036492;28;20113;-79
2022/08/30 02:57:43;;;;;;;7.50;4.35;;;16.20;99.90;;;;;;5029848;28;20079;-79
2022/08/30 03:00:12;;;;;;;8.43;3.75;;;16.20;99.90;;;;;;5044203;28;20545;-79
2022/08/30 03:02:39;;;;;;;5.90;4.20;;;16.10;99.90;;;;;;5014630;28;20459;-79
2022/08/30 03:05:06;;;;;;;6.80;3.95;;;16.10;99.90;;;;;;5039425;28;20056;-79
2022/08/30 03:07:32;;;;;;;5.70;4.28;;;16.10;99.90;;;;;;5021897;28;20160;-79
2022/08/30 03:09:59;;;;;;;8.70;4.95;;;16.10;99.90;;;;;;5045484;28;20041;-78
2022/08/30 03:12:27;;;;;;;7.40;4.30;;;16.00;99.90;;;;;;5032806;28;20486;-79
2022/08/30 03:14:53;;;;;;;6.32;4.22;;;16.00;99.90;;;;;;5031875;28;20048;-79
2022/08/30 03:17:19;;;;;;;6.63;4.47;;;16.10;99.90;;;;;;5047421;28;20550;-78
2022/08/30 03:19:46;;;;;;;7.07;4.40;;;16.00;99.90;;;;;;5033872;28;20038;-78
2022/08/30 03:22:12;;;;;;;7.43;4.45;;;16.00;99.90;;;;;;5050119;28;20164;-78
2022/08/30 03:24:39;;;;;;;6.15;4.28;;;16.00;99.90;;;;;;5031559;28;20116;-79
2022/08/30 03:27:06;;;;;;;6.90;4.68;;;15.90;99.90;;;;;;5028391;28;20068;-78
2022/08/30 03:29:32;;;;;;;7.68;4.85;;;15.80;99.90;;;;;;5031914;28;20049;-78
2022/08/30 03:31:58;;;;;;;7.72;4.63;;;15.90;99.90;;;;;;5034806;28;20060;-79
2022/08/30 03:34:25;;;;;;;8.70;4.50;;;15.90;99.90;;;;;;5027049;28;20049;-79
2022/08/30 03:36:52;;;;;;;6.75;4.53;;;15.80;99.90;;;;;;5019870;28;20087;-79
2022/08/30 03:39:20;;;;;;;7.00;4.50;;;15.80;99.90;;;;;;5045231;28;20493;-79
2022/08/30 03:41:46;;;;;;;6.82;4.68;;;15.80;99.90;;;;;;5027780;28;20046;-78
2022/08/30 03:44:11;;;;;;;6.60;4.57;;;15.70;99.90;;;;;;5026433;28;20125;-78
2022/08/30 03:46:37;;;;;;;8.23;4.60;;;15.70;99.90;;;;;;5053227;28;20048;-78
2022/08/30 03:49:04;;;;;;;6.85;4.75;;;15.60;99.90;;;;;;5025996;28;20049;-78
2022/08/30 03:51:32;;;;;;;6.40;4.60;;;15.60;99.90;;;;;;5034051;28;20041;-78
2022/08/30 03:53:58;;;;;;;6.72;4.53;;;15.60;99.90;;;;;;5039096;28;20165;-78
2022/08/30 03:56:24;;;;;;;8.52;4.85;;;15.60;99.90;;;;;;5027765;28;20124;-78
2022/08/30 03:58:50;;;;;;;9.20;4.72;;;15.80;99.90;;;;;;5010896;28;20122;-78
2022/08/30 04:01:17;;;;;;;7.60;4.78;;;15.60;99.90;;;;;;5031679;28;20088;-78
2022/08/30 04:03:42;;;;;;;8.05;4.82;;;15.50;99.90;;;;;;5018766;28;20417;-78
2022/08/30 04:06:10;;;;;;;8.13;5.15;;;15.50;99.90;;;;;;5032388;28;20037;-78
2022/08/30 04:08:37;;;;;;;5.60;4.53;;;15.40;99.90;;;;;;5030930;28;20489;-78
2022/08/30 04:11:04;;;;;;;7.55;4.57;;;15.40;99.90;;;;;;5031312;28;20056;-78
2022/08/30 04:13:29;;;;;;;7.40;4.50;;;15.40;99.90;;;;;;5017029;28;20056;-78
2022/08/30 04:15:56;;;;;;;6.45;4.57;;;15.30;99.90;;;;;;5024799;28;20044;-78
2022/08/30 04:18:22;;;;;;;7.18;4.72;;;15.80;99.90;;;;;;5015237;28;20036;-78
2022/08/30 04:20:50;;;;;;;7.60;4.72;;;15.20;99.90;;;;;;5053173;28;20040;-78
2022/08/30 04:23:15;;;;;;;7.45;5.15;;;15.20;99.90;;;;;;5014969;28;20037;-78
2022/08/30 04:25:41;;;;;;;6.82;5.05;;;15.20;99.90;;;;;;5012270;28;20040;-78
2022/08/30 04:28:08;;;;;;;9.27;5.45;;;15.20;99.90;;;;;;5049626;28;20129;-80
2022/08/30 04:30:41;;;;;;;8.10;5.50;;;15.00;99.90;;;;;;5016756;28;20043;-79
2022/08/30 04:33:07;;;;;;;8.15;5.88;;;15.10;99.90;;;;;;5010184;28;20080;-79
2022/08/30 04:35:34;;;;;;;8.70;5.55;;;15.20;99.90;;;;;;5023250;28;20033;-80
2022/08/30 04:38:01;;;;;;;8.45;6.00;;;15.10;99.90;;;;;;5034782;28;20033;-79
2022/08/30 04:40:26;;;;;;;10.40;5.80;;;15.10;99.90;;;;;;5036417;28;20034;-80
2022/08/30 04:42:53;;;;;;;8.63;5.65;;;15.10;99.90;;;;;;5031472;28;20061;-79
2022/08/30 04:45:20;;;;;;;7.70;5.00;;;15.20;99.90;;;;;;5041915;28;20049;-79
2022/08/30 04:47:46;;;;;;;9.05;6.07;;;15.10;99.90;;;;;;5031647;28;20117;-79
2022/08/30 04:50:19;;;;;;;9.63;5.82;;;15.10;99.90;;;;;;5024001;28;20045;-79
2022/08/30 04:52:47;;;;;;;7.90;5.65;;;15.20;99.90;;;;;;5029452;28;20597;-79
2022/08/30 04:55:17;;;;;;;10.80;6.10;;;15.10;99.90;;;;;;5034255;28;20045;-80
2022/08/30 04:57:42;;;;;;;7.72;5.65;;;15.10;99.90;;;;;;5027915;28;20052;-79
2022/08/30 05:00:11;;;;;;;9.98;5.97;;;15.50;99.90;;;;;;5028670;28;20034;-79
2022/08/30 05:02:39;;;;;;;8.07;5.63;;;15.10;99.90;;;;;;5035556;28;20497;-79
2022/08/30 05:07:55;;;;;;;9.30;5.85;;;15.10;99.90;;;;;;5030792;28;20060;-78
2022/08/30 05:10:22;;;;;;;7.30;5.95;;;15.50;99.90;;;;;;5031397;28;20449;-78
2022/08/30 05:12:49;;;;;;;8.50;6.00;;;15.10;99.90;;;;;;5023048;28;20033;-79
2022/08/30 05:15:18;;;;;;;10.07;6.10;;;15.00;99.90;;;;;;5028768;28;20048;-79
2022/08/30 05:17:43;;;;;;;8.48;6.22;;;15.00;99.90;;;;;;5030900;28;20124;-79
2022/08/30 05:20:10;;;;;;;7.65;5.82;;;15.00;99.90;;;;;;5031976;28;20076;-78
2022/08/30 05:22:38;;;;;;;8.10;5.70;;;15.00;99.90;;;;;;5032452;28;20044;-78
2022/08/30 05:25:05;;;;;;;10.05;5.93;;;15.00;99.90;;;;;;5048886;28;20393;-79
2022/08/30 05:27:32;;;;;;;6.78;5.47;;;15.00;99.90;;;;;;5030750;28;20048;-78
2022/08/30 05:29:57;;;;;;;11.02;5.70;;;15.00;99.90;;;;;;5032319;28;20033;-79
2022/08/30 05:32:24;;;;;;;9.23;5.90;;;15.30;99.90;;;;;;5024550;28;20029;-79
2022/08/30 05:34:49;;;;;;;7.80;5.80;;;15.10;99.90;;;;;;5038040;28;20118;-79
2022/08/30 05:37:21;;;;;;;7.55;5.55;;;15.00;99.90;;;;;;5018136;28;20034;-79
2022/08/30 05:39:47;;;;;;;7.72;5.50;;;15.00;99.90;;;;;;5031693;28;20032;-79
2022/08/30 05:42:12;;;;;;;9.45;5.57;;;15.00;99.90;;;;;;5027671;28;20029;-78
2022/08/30 05:44:38;;;;;;;9.20;5.40;;;15.00;99.90;;;;;;5031568;28;20452;-78
2022/08/30 05:47:03;;;;;;;8.82;5.55;;;15.00;99.90;;;;;;5024905;28;20132;-78
2022/08/30 05:49:31;;;;;;;11.40;5.60;;;15.00;99.90;;;;;;5022500;28;20049;-79
2022/08/30 05:51:56;;;;;;;9.80;5.32;;;15.00;99.90;;;;;;5024878;28;20476;-79
2022/08/30 05:54:22;;;;;;;10.07;6.13;;;15.10;99.90;;;;;;5030299;28;20049;-79
2022/08/30 05:56:48;;;;;;;8.07;5.70;;;15.00;99.90;;;;;;5023119;28;20462;-79
2022/08/30 05:59:14;;;;;;;9.43;5.60;;;15.00;99.90;;;;;;5046400;28;20076;-79
2022/08/30 06:01:43;;;;;;;9.40;5.50;;;15.10;99.90;;;;;;5046352;28;20060;-79
2022/08/30 06:04:11;;;;;;;8.30;5.28;;;15.10;99.90;;;;;;5023920;28;20038;-79
2022/08/30 06:06:38;;;;;;;7.07;5.47;;;15.50;99.90;;;;;;5026738;28;20121;-79
2022/08/30 06:09:06;;;;;;;7.82;5.22;;;15.10;99.90;;;;;;5023308;28;20037;-78
2022/08/30 06:11:32;;;;;;;7.72;5.72;;;15.10;99.90;;;;;;5028168;28;20124;-79
2022/08/30 06:14:02;;;;;;;9.27;5.40;;;15.10;99.90;;;;;;5041153;28;20061;-78
2022/08/30 06:16:28;;;;;;;7.70;5.50;;;15.10;99.90;;;;;;5038823;28;20056;-79
2022/08/30 06:18:55;;;;;;;7.60;5.50;;;15.10;99.90;;;;;;5045124;28;20319;-78
2022/08/30 06:21:25;;;;;;;7.72;5.72;;;15.20;99.90;;;;;;5044953;28;20557;-79
2022/08/30 06:23:54;;;;;;;7.30;5.38;;;15.10;99.90;;;;;;5029227;28;20042;-79
2022/08/30 06:26:20;;;;;;;8.05;5.50;;;15.20;99.90;;;;;;5036977;28;20044;-78
2022/08/30 06:28:46;;;;;;;9.88;5.15;;;15.20;99.90;;;;;;5029818;28;20044;-79
2022/08/30 06:31:16;;;;;;;8.82;5.30;;;15.20;99.90;;;;;;5028487;28;20419;-79
2022/08/30 06:33:43;;;;;;;9.95;5.22;;;15.20;99.90;;;;;;5028931;28;20033;-79
2022/08/30 06:36:12;;;;;;;8.85;5.07;;;15.20;99.90;;;;;;5027099;28;20383;-77
2022/08/30 06:38:44;;;;;;;8.95;5.40;;;15.30;99.90;;;;;;5026569;28;20497;-78
2022/08/30 06:41:12;;;;;;;9.00;4.97;;;15.30;99.90;;;;;;5028837;28;20033;-78
2022/08/30 06:43:38;;;;;;;12.80;5.22;;;15.30;99.90;;;;;;5026573;28;20465;-78
2022/08/30 06:46:09;;;;;;;11.05;5.47;;;15.40;99.90;;;;;;5037078;28;20120;-78
2022/08/30 06:48:35;;;;;;;8.77;5.53;;;15.70;99.90;;;;;;5036363;28;20420;-79
2022/08/30 06:51:00;;;;;;;11.00;5.30;;;15.40;99.90;;;;;;5032331;28;20514;-78
2022/08/30 06:53:29;;;;;;;7.82;5.05;;;15.50;99.90;;;;;;5049346;28;20413;-78
2022/08/30 06:56:00;;;;;;;6.18;4.85;;;15.40;99.90;;;;;;5032058;28;20041;-78
2022/08/30 06:58:30;;;;;;;7.47;5.18;;;15.50;99.90;;;;;;5038410;28;20481;-79
2022/08/30 07:00:56;;;;;;;6.47;4.55;;;15.80;99.90;;;;;;5015991;28;20033;-79
2022/08/30 07:03:22;;;;;;;6.80;4.60;;;15.50;99.90;;;;;;5032990;28;20037;-79
2022/08/30 07:05:48;;;;;;;7.15;4.47;;;15.50;99.90;;;;;;5027106;28;20397;-78
2022/08/30 07:08:15;;;;;;;6.07;4.50;;;15.50;99.90;;;;;;5022080;28;20104;-79
2022/08/30 07:10:42;;;;;;;11.82;4.70;;;15.50;99.90;;;;;;5031388;28;20041;-79
2022/08/30 07:13:08;;;;;;;5.80;3.92;;;15.60;99.90;;;;;;5053305;28;20548;-78
2022/08/30 07:15:35;;;;;;;8.68;4.40;;;15.60;99.90;;;;;;5037769;28;20084;-78
2022/08/30 07:20:48;;;;;;;7.40;4.32;;;15.60;99.90;;;;;;5035954;28;20041;-77
2022/08/30 07:23:13;;;;;;;8.73;3.95;;;15.70;99.90;;;;;;5036472;28;20037;-77
2022/08/30 07:25:40;;;;;;;7.35;3.83;;;15.70;99.90;;;;;;5046912;28;20045;-79
2022/08/30 07:28:09;;;;;;;5.10;3.35;;;15.80;99.90;;;;;;5028370;28;20033;-78
2022/08/30 07:30:35;;;;;;;9.15;3.58;;;16.10;99.90;;;;;;5045856;28;20083;-78
2022/08/30 07:33:05;;;;;;;5.80;3.10;;;15.80;99.90;;;;;;5037738;28;20410;-78
2022/08/30 07:35:30;;;;;;;4.07;2.60;;;15.80;99.90;;;;;;5038770;28;20157;-78
2022/08/30 07:37:57;;;;;;;7.40;2.50;;;15.90;99.90;;;;;;5035489;28;20125;-79
2022/08/30 07:40:24;;;;;;;6.35;2.65;;;15.90;99.90;;;;;;5052768;28;20445;-78
2022/08/30 07:42:50;;;;;;;4.97;2.28;;;15.90;99.90;;;;;;5054820;28;20547;-78
2022/08/30 07:45:17;;;;;;;5.13;2.08;;;16.00;99.90;;;;;;5032999;28;20120;-78
2022/08/30 07:47:44;;;;;;;4.03;1.85;;;16.00;99.90;;;;;;5028472;28;20049;-78
2022/08/30 07:50:10;;;;;;;3.53;1.92;;;16.00;99.90;;;;;;5032686;28;20045;-78
2022/08/30 07:52:35;;;;;;;5.50;1.85;;;16.00;99.90;;;;;;5055427;28;20050;-79
2022/08/30 07:55:03;;;;;;;3.95;1.85;;;16.10;99.90;;;;;;5032702;28;20033;-79
2022/08/30 07:57:32;;;;;;;3.30;1.70;;;16.10;99.90;;;;;;5034352;28;20045;-78
2022/08/30 08:00:00;;;;;;;3.22;1.65;;;16.20;99.90;;;;;;5033718;28;20489;-79
2022/08/30 08:02:26;;;;;;;5.22;2.00;;;16.20;99.90;;;;;;5030713;28;20038;-78
2022/08/30 08:04:52;;;;;;;5.28;1.70;;;16.20;99.90;;;;;;5049972;28;20064;-78
2022/08/30 08:07:20;;;;;;;3.38;1.55;;;16.30;99.90;;;;;;5049801;28;20069;-78
2022/08/30 08:09:45;;;;;;;3.00;1.67;;;16.30;99.90;;;;;;5034129;28;20453;-78
2022/08/30 08:12:11;;;;;;;3.28;1.90;;;16.40;99.90;;;;;;5060638;28;20079;-77
2022/08/30 08:14:37;;;;;;;2.95;1.65;;;16.40;99.90;;;;;;5033946;28;20041;-78
2022/08/30 08:17:03;;;;;;;4.30;1.48;;;16.40;99.90;;;;;;5046590;28;20497;-77
2022/08/30 08:19:29;;;;;;;4.57;1.75;;;16.50;99.90;;;;;;5010625;28;20096;-78
2022/08/30 08:21:58;;;;;;;4.05;1.83;;;16.50;99.90;;;;;;5042908;28;20108;-78
2022/08/30 08:24:25;;;;;;;3.65;1.60;;;16.40;99.90;;;;;;5033528;28;20503;-78
2022/08/30 08:26:51;;;;;;;2.65;1.40;;;16.60;99.90;;;;;;5007855;28;20041;-78
2022/08/30 08:29:18;;;;;;;2.47;1.52;;;16.60;99.90;;;;;;5035411;28;20056;-78
2022/08/30 08:31:45;;;;;;;3.45;1.75;;;16.60;99.90;;;;;;5032464;28;20043;-78
2022/08/30 08:34:13;;;;;;;3.55;1.67;;;16.70;99.90;;;;;;5036742;28;20533;-78
2022/08/30 08:36:42;;;;;;;3.67;1.80;;;16.80;99.90;;;;;;5015737;28;20033;-78
2022/08/30 08:39:08;;;;;;;2.17;1.58;;;16.80;99.90;;;;;;5036965;28;20112;-78
2022/08/30 08:41:39;;;;;;;3.35;1.90;;;16.90;99.90;;;;;;5029282;28;20041;-78
2022/08/30 08:44:22;;;;;;;2.55;1.95;;;17.00;99.90;;;;;;5031767;28;20087;-78
2022/08/30 08:47:25;;;;;;;4.75;1.95;;;17.10;99.90;;;;;;5033513;28;20029;-78
2022/08/30 08:49:57;;;;;;;4.65;1.67;;;17.20;99.90;;;;;;5013078;28;20038;-79
2022/08/30 08:55:26;;;;;;;3.15;1.45;;;17.60;99.90;;;;;;5032448;28;20420;-78
2022/08/30 08:57:52;;;;;;;4.07;1.75;;;17.40;99.90;;;;;;5031248;28;20072;-78
2022/08/30 09:00:19;;;;;;;3.92;1.48;;;18.00;99.90;;;;;;5019961;28;20038;-78
2022/08/30 09:02:57;;;;;;;3.95;1.83;;;18.30;99.90;;;;;;5030005;28;20164;-78
2022/08/30 09:05:26;;;;;;;2.83;1.70;;;18.50;99.90;;;;;;5015185;28;20038;-78
2022/08/30 09:08:01;;;;;;;5.10;1.90;;;18.80;99.90;;;;;;5048066;28;20116;-78
2022/08/30 09:10:31;;;;;;;3.22;1.73;;;19.10;99.90;;;;;;5054273;28;20052;-78
2022/08/30 09:12:56;;;;;;;3.40;1.40;;;19.30;99.90;;;;;;5052957;28;20499;-78
2022/08/30 09:15:28;;;;;;;3.92;2.00;;;19.60;99.90;;;;;;5036180;28;20079;-78
2022/08/30 09:18:01;;;;;;;4.22;1.60;;;19.70;99.90;;;;;;5031525;28;20033;-78
2022/08/30 09:20:32;;;;;;;2.92;1.55;;;19.80;99.90;;;;;;5013141;28;20045;-79
2022/08/30 09:22:58;;;;;;;2.83;1.63;;;20.10;99.90;;;;;;5005313;28;20052;-79
2022/08/30 09:25:29;;;;;;;3.03;1.60;;;20.20;99.90;;;;;;5039083;28;20405;-79
2022/08/30 09:28:20;;;;;;;3.40;1.70;;;20.30;99.90;;;;;;5029859;28;20041;-79
2022/08/30 09:31:23;;;;;;;4.18;1.60;;;20.50;99.90;;;;;;5048187;28;20037;-79
2022/08/30 09:34:02;;;;;;;3.00;1.50;;;20.70;99.60;;;;;;5033691;28;20409;-78
2022/08/30 09:36:32;;;;;;;2.63;1.52;;;20.90;99.40;;;;;;5029845;28;20052;-79
2022/08/30 09:39:05;;;;;;;2.83;1.50;;;21.10;99.40;;;;;;5027459;28;20046;-79
2022/08/30 09:41:40;;;;;;;4.50;1.85;;;21.20;99.10;;;;;;5022947;28;20045;-79
2022/08/30 09:44:30;;;;;;;4.72;1.58;;;21.40;98.00;;;;;;5020321;28;20033;-80
2022/08/30 09:47:00;;;;;;;2.63;1.60;;;21.50;97.40;;;;;;5042796;28;20099;-79
2022/08/30 09:49:30;;;;;;;3.97;1.67;;;21.70;96.70;;;;;;5026036;28;20129;-79
2022/08/30 09:52:30;;;;;;;1.63;1.30;;;21.80;95.90;;;;;;5029651;28;20038;-79
2022/08/30 09:55:22;;;;;;;3.92;1.70;;;22.00;95.00;;;;;;5040734;28;20076;-78
2022/08/30 09:58:13;;;;;;;3.60;1.65;;;22.00;95.10;;;;;;5033861;28;20497;-79
2022/08/30 10:01:11;;;;;;;2.67;1.52;;;22.20;93.10;;;;;;5032144;28;20049;-77
2022/08/30 10:03:48;;;;;;;6.60;1.80;;;22.30;92.00;;;;;;5013679;28;20041;-79
2022/08/30 10:06:27;;;;;;;3.85;1.50;;;22.40;93.30;;;;;;5029843;28;20108;-78
2022/08/30 10:09:24;;;;;;;2.63;1.40;;;22.50;92.50;;;;;;5022175;28;20540;-78
2022/08/30 10:12:08;;;;;;;3.75;1.17;;;22.60;91.30;;;;;;5021430;28;20041;-78
2022/08/30 10:14:47;;;;;;;3.10;1.30;;;22.60;90.20;;;;;;5019092;28;20042;-78
2022/08/30 10:17:39;;;;;;;2.15;1.40;;;22.70;90.50;;;;;;5030260;28;20119;-79
2022/08/30 10:20:11;;;;;;;2.20;1.38;;;22.70;90.10;;;;;;5036216;28;20064;-79
2022/08/30 10:22:48;;;;;;;5.85;1.55;;;22.80;88.50;;;;;;5027813;28;20038;-79
2022/08/30 10:25:25;;;;;;;2.92;1.48;;;22.90;87.60;;;;;;5023955;28;20052;-79
2022/08/30 10:27:57;;;;;;;1.55;1.30;;;23.00;86.30;;;;;;5027618;28;20040;-80
2022/08/30 10:30:23;;;;;;;3.83;1.55;;;23.00;87.00;;;;;;5023190;28;20042;-80
2022/08/30 10:33:29;;;;;;;3.08;1.50;;;23.10;87.10;;;;;;5023452;28;20045;-79
2022/08/30 10:35:58;;;;;;;2.58;1.50;;;23.10;83.10;;;;;;5025754;28;20116;-78
2022/08/30 10:38:36;;;;;;;2.53;1.30;;;23.10;84.90;;;;;;5021299;28;20080;-78
2022/08/30 10:41:26;;;;;;;1.75;1.00;;;23.10;82.90;;;;;;5043518;28;20046;-78
2022/08/30 10:44:05;;;;;;;2.22;1.45;;;23.20;84.20;;;;;;5045432;28;20124;-78
2022/08/30 10:46:56;;;;;;;3.42;1.50;;;23.20;84.10;;;;;;5039704;28;20506;-78
2022/08/30 10:49:24;;;;;;;2.03;1.40;;;23.40;83.10;;;;;;4996147;28;20042;-78
2022/08/30 10:51:57;;;;;;;1.63;1.20;;;23.50;83.60;;;;;;5020969;28;20497;-78
2022/08/30 10:54:33;;;;;;;2.97;1.30;;;23.60;82.40;;;;;;5022809;28;20509;-78
2022/08/30 10:56:59;;;;;;;1.63;1.40;;;23.70;82.60;;;;;;5022922;28;20060;-78
2022/08/30 10:59:26;;;;;;;4.82;1.75;;;23.70;82.80;;;;;;5033377;28;20037;-78
2022/08/30 11:01:55;;;;;;;1.77;1.27;;;23.80;82.80;;;;;;5034090;28;20035;-78
2022/08/30 11:04:23;;;;;;;3.85;1.40;;;23.90;82.40;;;;;;5023458;28;20034;-79
2022/08/30 11:07:18;;;;;;;3.70;1.40;;;24.00;81.80;;;;;;5026945;28;20515;-78
2022/08/30 11:10:26;;;;;;;2.55;1.33;;;24.10;78.20;;;;;;5021071;28;20060;-79
2022/08/30 11:13:10;;;;;;;2.13;1.20;;;24.10;77.30;;;;;;4967177;28;20433;-79
2022/08/30 11:15:51;;;;;;;2.53;1.33;;;24.20;77.70;;;;;;5008269;28;20064;-80
2022/08/30 11:18:20;;;;;;;2.42;1.10;;;24.20;76.00;;;;;;5028822;28;20041;-78
2022/08/30 11:20:52;;;;;;;1.80;1.40;;;24.20;76.90;;;;;;5030078;28;20561;-80
2022/08/30 11:23:21;;;;;;;2.47;1.58;;;24.20;76.60;;;;;;5039662;28;20513;-79
2022/08/30 11:26:06;;;;;;;2.40;1.55;;;24.30;77.00;;;;;;5028359;28;20117;-79
2022/08/30 11:28:35;;;;;;;2.65;1.40;;;24.40;76.40;;;;;;5029129;28;20050;-79
2022/08/30 11:31:24;;;;;;;4.43;1.58;;;24.50;75.20;;;;;;5046829;28;20038;-79
2022/08/30 11:33:55;;;;;;;2.70;1.63;;;24.50;73.80;;;;;;5032475;28;20122;-79
2022/08/30 11:36:27;;;;;;;3.47;1.30;;;24.50;73.60;;;;;;5022490;28;20117;-79
2022/08/30 11:38:56;;;;;;;2.20;1.30;;;24.50;73.00;;;;;;5038166;28;20401;-79
2022/08/30 11:42:10;;;;;;;2.50;1.25;;;24.60;72.70;;;;;;5031774;28;20701;-79
2022/08/30 11:44:36;;;;;;;3.08;1.42;;;24.70;70.00;;;;;;5031642;28;20055;-81
2022/08/30 11:47:43;;;;;;;2.80;1.35;;;24.70;71.30;;;;;;5032212;28;20045;-80
2022/08/30 11:50:19;;;;;;;5.03;1.40;;;24.70;69.00;;;;;;5030592;28;20067;-80
2022/08/30 11:53:41;;;;;;;4.40;1.35;;;24.60;68.60;;;;;;5018503;28;20033;-80
2022/08/30 11:56:41;;;;;;;1.98;1.10;;;24.60;67.50;;;;;;5021951;28;20123;-81
2022/08/30 11:59:46;;;;;;;2.22;1.20;;;24.80;68.60;;;;;;4994467;28;20077;-80
2022/08/30 12:02:47;;;;;;;3.50;1.25;;;24.80;67.40;;;;;;5052359;28;20404;-81
2022/08/30 12:05:34;;;;;;;4.90;1.60;;;24.90;66.60;;;;;;5050496;28;20489;-80
2022/08/30 12:08:35;;;;;;;2.55;1.30;;;24.90;65.30;;;;;;5033337;28;20037;-80
2022/08/30 12:11:27;;;;;;;2.28;1.35;;;24.90;65.80;;;;;;5028633;28;20033;-80
2022/08/30 12:13:54;;;;;;;2.25;1.27;;;24.90;66.90;;;;;;5030435;28;20067;-80
2022/08/30 12:16:25;;;;;;;3.65;1.40;;;25.00;67.00;;;;;;5033016;28;20041;-80
2022/08/30 12:19:12;;;;;;;2.35;1.52;;;25.00;66.40;;;;;;5016189;28;20037;-80
2022/08/30 12:21:42;;;;;;;4.35;1.80;;;25.10;65.90;;;;;;5047992;28;20079;-80
2022/08/30 12:24:25;;;;;;;2.67;1.52;;;25.10;65.50;;;;;;5034417;28;20389;-80
2022/08/30 12:26:53;;;;;;;3.50;1.50;;;25.10;65.30;;;;;;5034148;28;20038;-80
2022/08/30 12:29:23;;;;;;;2.63;1.23;;;25.10;65.20;;;;;;5036246;28;20037;-80
2022/08/30 12:32:14;;;;;;;2.20;1.23;;;25.00;65.00;;;;;;5030474;28;20041;-80
2022/08/30 12:34:39;;;;;;;1.63;1.40;;;25.00;64.30;;;;;;5034346;28;20041;-80
2022/08/30 12:37:10;;;;;;;6.10;1.42;;;25.00;64.70;;;;;;5035579;28;20573;-80
2022/08/30 12:39:37;;;;;;;3.40;1.53;;;24.90;64.50;;;;;;5018532;28;20030;-79
2022/08/30 12:42:31;;;;;;;1.83;1.27;;;25.00;65.10;;;;;;5024234;28;20423;-79
2022/08/30 12:45:09;;;;;;;1.45;1.20;;;24.90;62.20;;;;;;5016823;28;20057;-79
2022/08/30 12:47:49;;;;;;;2.38;1.25;;;25.00;63.70;;;;;;5038592;28;20037;-79
2022/08/30 12:50:24;;;;;;;1.52;1.35;;;25.00;63.60;;;;;;5021714;28;20528;-80
2022/08/30 12:53:02;;;;;;;3.03;1.50;;;25.00;64.20;;;;;;5026316;28;20079;-81
2022/08/30 12:55:34;;;;;;;4.53;1.30;;;25.00;65.10;;;;;;5010267;28;20370;-80
2022/08/30 12:58:09;;;;;;;3.78;1.50;;;25.00;64.70;;;;;;5022511;28;20030;-80
2022/08/30 13:00:43;;;;;;;2.15;1.30;;;25.00;64.40;;;;;;5029954;28;20033;-80
2022/08/30 13:03:38;;;;;;;3.22;1.35;;;25.00;64.10;;;;;;5028296;28;20489;-82
2022/08/30 13:06:08;;;;;;;1.25;1.15;;;25.00;63.90;;;;;;5029309;28;20044;-80
2022/08/30 13:08:50;;;;;;;2.58;1.20;;;25.00;64.10;;;;;;5031448;28;20037;-79
2022/08/30 13:11:23;;;;;;;3.33;1.30;;;25.00;63.70;;;;;;5029040;28;20458;-79
2022/08/30 13:14:13;;;;;;;1.65;1.15;;;24.90;64.00;;;;;;5028443;28;20068;-79
2022/08/30 13:16:39;;;;;;;2.08;1.20;;;24.90;63.80;;;;;;5013148;28;20077;-79